Pauls Valley, OK (73075)

6:29 AM CST on February 27, 2017 (GMT -0600)
Pauls Valley Municipal | | Change Station

Elev 968 ft 34.71 °N, 97.23 °W | Updated 14 minutes ago

Overcast
Overcast
51 °F
Feels Like 51 °F
N
6
Wind Variable Wind from SE

Today
High -- | Low -- °F
--% Chance of Precip.
Yesterday
High -- | Low -- °F
Precip. -- in
Pressure 29.92 in
Visibility 10.0 miles
Clouds Overcast 1000 ft
Dew Point 45 °F
Humidity 78%
Rainfall 0.00 in
Snow Depth Not available.
7:00 AM 6:23 PM
New Moon, 1% visible
METAR KPVJ 271215Z AUTO 13005KT 10SM OVC010 11/07 A2992 RMK AO2 T01070070
Pressure 29.92 in
Visibility 10.0 miles
Clouds Overcast 1000 ft
Dew Point 45 °F
Humidity 78%
Rainfall 0.00 in
Snow Depth Not available.
7:00 AM 6:23 PM
New Moon, 1% visible
METAR KPVJ 271215Z AUTO 13005KT 10SM OVC010 11/07 A2992 RMK AO2 T01070070

Get Your Daily Forecast Email!

Thanks for signing up!

Be on the lookout for a verification email in your inbox.

You'll start receiving the daily forecast at 8 AM.

×

10-Day Weather Forecast

Almanac

Astronomy

Feb. 27, 2017 Rise Set
Actual Time
Civil Twilight
Nautical Twilight
Astronomical Twilight
Moon
Length of Visible Light
Length of Day
Tomorrow will be .
, % of the Moon is Illuminated

Today's Extremes

State Highs State Lows

Community

WunderPhotos

Upload Photos

1,962,540 photos uploaded!

WunderBlog® & News

Nearby

Air Quality

  Air Quality AQ Index Pollutant
Not available.

Snow Depth

Station Depth Elevation

Earthquake Activity

City Distance Mag. Time & Date
Minimum magnitude displayed is 2.5.

Coastal Water Temperatures

Place Temperature

Stations

Nearby Weather Stations

Station Location Temp. Windchill Dew Point Humidity Wind Precip. Elev Updated Type
                   

Watches & Warnings

There are currently no watches in effect.